createdAt,value
2022-09-27T00:01:02.170Z,11.02
2022-09-27T00:02:23.354Z,10.79
2022-09-27T00:03:44.622Z,8.24
2022-09-27T00:05:06.053Z,8.99
2022-09-27T00:06:28.698Z,8.71
2022-09-27T00:07:49.657Z,8.83
2022-09-27T00:09:11.149Z,9.74
2022-09-27T00:10:34.594Z,9.30
2022-09-27T00:11:56.062Z,10.32
2022-09-27T00:13:17.749Z,9.54
2022-09-27T00:14:39.173Z,8.65
2022-09-27T00:16:02.084Z,9.99
2022-09-27T00:17:23.195Z,11.63
2022-09-27T00:18:44.534Z,9.30
2022-09-27T00:20:06.469Z,11.16
2022-09-27T00:21:27.602Z,9.20
2022-09-27T00:22:48.748Z,9.09
2022-09-27T00:24:18.622Z,9.23
2022-09-27T00:26:56.957Z,6.67
2022-09-27T00:28:18.911Z,8.81
2022-09-27T00:29:40.551Z,8.23
2022-09-27T00:31:02.393Z,8.47
2022-09-27T00:32:23.867Z,10.79
2022-09-27T00:33:45.188Z,10.37
2022-09-27T00:35:07.133Z,9.64
2022-09-27T00:36:28.905Z,11.92
2022-09-27T00:37:50.260Z,7.04
2022-09-27T00:39:11.821Z,9.32
2022-09-27T00:40:35.119Z,12.02
2022-09-27T00:41:56.307Z,9.44
2022-09-27T00:43:19.606Z,10.07
2022-09-27T00:46:00.770Z,11.20
2022-09-27T00:47:31.647Z,11.64
2022-09-27T00:49:11.394Z,10.80
2022-09-27T00:50:38.735Z,9.07
2022-09-27T00:53:21.110Z,10.59
2022-09-27T00:54:44.198Z,9.81
2022-09-27T00:56:08.625Z,12.13
2022-09-27T00:57:29.987Z,9.22
2022-09-27T01:01:14.763Z,9.59
2022-09-27T01:02:37.545Z,9.58
2022-09-27T01:04:10.506Z,9.36
2022-09-27T01:05:33.596Z,9.79
2022-09-27T01:06:55.037Z,10.92
2022-09-27T01:08:16.310Z,10.03
2022-09-27T01:09:37.832Z,9.08
2022-09-27T01:11:08.760Z,9.83
2022-09-27T01:12:39.730Z,10.18
2022-09-27T01:14:05.074Z,9.12
2022-09-27T01:16:52.357Z,12.15
2022-09-27T01:18:26.501Z,10.48
2022-09-27T01:20:03.616Z,9.48
2022-09-27T01:21:40.301Z,10.21
2022-09-27T01:23:14.585Z,13.46
2022-09-27T01:24:45.736Z,11.58
2022-09-27T01:29:12.518Z,12.06
2022-09-27T01:31:07.653Z,12.19
2022-09-27T01:33:48.512Z,12.84
2022-09-27T01:35:38.155Z,12.88
2022-09-27T01:38:36.749Z,11.44
2022-09-27T01:40:13.869Z,13.86
2022-09-27T01:41:48.593Z,14.71
2022-09-27T01:44:31.875Z,15.06
2022-09-27T01:45:58.702Z,15.31
2022-09-27T01:47:22.056Z,14.78
2022-09-27T01:48:45.019Z,16.13
2022-09-27T01:50:13.228Z,15.53
2022-09-27T01:52:51.964Z,14.97
2022-09-27T01:54:16.665Z,16.60
2022-09-27T01:55:38.345Z,14.82
2022-09-27T01:56:59.612Z,16.30
2022-09-27T01:58:30.768Z,16.18
2022-09-27T02:00:01.571Z,17.68
2022-09-27T02:01:23.022Z,18.13
2022-09-27T02:03:57.217Z,16.63
2022-09-27T02:05:19.092Z,14.28
2022-09-27T02:06:43.121Z,15.46
2022-09-27T02:08:06.770Z,13.72
2022-09-27T02:10:42.619Z,13.59
2022-09-27T02:12:06.338Z,14.76
2022-09-27T02:13:54.122Z,14.38
2022-09-27T02:15:15.466Z,15.11
2022-09-27T02:16:50.917Z,15.23
2022-09-27T02:19:33.680Z,15.45
2022-09-27T02:20:58.390Z,13.39
2022-09-27T02:22:34.966Z,14.65
2022-09-27T02:23:56.838Z,14.84
2022-09-27T02:26:39.558Z,13.78
2022-09-27T02:29:25.383Z,10.66
2022-09-27T02:30:47.161Z,13.31
2022-09-27T02:32:08.266Z,15.26
2022-09-27T02:33:38.934Z,15.51
2022-09-27T02:35:02.187Z,12.91
2022-09-27T02:36:23.603Z,12.11
2022-09-27T02:37:44.956Z,14.32
2022-09-27T02:39:06.694Z,12.13
2022-09-27T02:40:32.283Z,12.89
2022-09-27T02:41:54.938Z,12.05
2022-09-27T02:43:17.060Z,13.82
2022-09-27T02:44:38.319Z,11.71
2022-09-27T02:46:17.963Z,12.46
2022-09-27T02:47:57.322Z,11.63
2022-09-27T02:49:21.995Z,15.60
2022-09-27T02:50:59.139Z,14.06
2022-09-27T02:52:35.973Z,12.02
2022-09-27T02:54:04.118Z,11.84
2022-09-27T02:55:32.946Z,11.77
2022-09-27T02:57:16.194Z,12.25
2022-09-27T02:58:58.769Z,11.73
2022-09-27T03:01:42.758Z,12.00
2022-09-27T03:03:19.458Z,10.84
2022-09-27T03:04:47.334Z,9.69
2022-09-27T03:06:11.036Z,10.27
2022-09-27T03:07:32.671Z,10.64
2022-09-27T03:08:56.228Z,9.87
2022-09-27T03:10:23.296Z,11.32
2022-09-27T03:11:44.636Z,10.51
2022-09-27T03:13:06.167Z,10.67
2022-09-27T03:14:27.301Z,11.18
2022-09-27T03:15:48.960Z,10.31
2022-09-27T03:17:10.457Z,10.92
2022-09-27T03:18:32.759Z,10.96
2022-09-27T03:19:54.192Z,9.18
2022-09-27T03:21:15.812Z,10.52
2022-09-27T03:22:37.428Z,10.71
2022-09-27T03:23:58.791Z,10.21
2022-09-27T03:25:20.389Z,10.62
2022-09-27T03:26:42.717Z,10.73
2022-09-27T03:28:04.113Z,10.37
2022-09-27T03:29:25.510Z,10.27
2022-09-27T03:30:47.323Z,11.23
2022-09-27T03:32:08.712Z,10.86
2022-09-27T03:33:31.657Z,10.62
2022-09-27T03:36:14.462Z,11.97
2022-09-27T03:37:35.910Z,13.23
2022-09-27T03:38:57.310Z,11.72
2022-09-27T03:40:18.814Z,10.29
2022-09-27T03:41:40.246Z,11.39
2022-09-27T03:43:02.206Z,13.24
2022-09-27T03:44:23.570Z,12.28
2022-09-27T03:45:44.725Z,12.69
2022-09-27T03:47:06.033Z,11.16
2022-09-27T03:48:28.357Z,10.69
2022-09-27T03:49:49.600Z,10.73
2022-09-27T03:51:11.196Z,9.79
2022-09-27T03:52:32.460Z,9.23
2022-09-27T03:53:53.516Z,8.87
2022-09-27T03:55:15.046Z,8.50
2022-09-27T03:56:37.157Z,8.62
2022-09-27T03:57:58.347Z,9.59
2022-09-27T03:59:19.911Z,8.48
2022-09-27T04:00:41.253Z,9.59
2022-09-27T04:02:02.757Z,10.16
2022-09-27T04:03:23.993Z,9.43
2022-09-27T04:04:45.400Z,9.88
2022-09-27T04:07:16.816Z,9.01
2022-09-27T04:08:38.316Z,10.03
2022-09-27T04:09:59.949Z,10.56
2022-09-27T04:11:21.759Z,10.91
2022-09-27T04:12:43.320Z,11.62
2022-09-27T04:14:07.019Z,9.92
2022-09-27T04:15:28.407Z,11.94
2022-09-27T04:16:49.975Z,12.43
2022-09-27T04:18:11.490Z,11.99
2022-09-27T04:19:32.621Z,11.46
2022-09-27T04:20:54.119Z,15.93
2022-09-27T04:22:15.260Z,13.80
2022-09-27T04:23:38.558Z,15.43
2022-09-27T04:24:59.989Z,13.62
2022-09-27T04:26:21.778Z,12.33
2022-09-27T04:27:45.779Z,13.27
2022-09-27T04:29:06.878Z,12.13
2022-09-27T04:30:28.678Z,13.26
2022-09-27T04:31:50.220Z,13.94
2022-09-27T04:33:12.647Z,14.61
2022-09-27T04:34:34.099Z,15.62
2022-09-27T04:35:55.741Z,13.69
2022-09-27T04:37:17.308Z,15.69
2022-09-27T04:38:38.645Z,13.23
2022-09-27T04:40:00.894Z,15.53
2022-09-27T04:41:22.664Z,9.52
2022-09-27T04:42:44.107Z,12.81
2022-09-27T04:44:05.679Z,11.96
2022-09-27T04:45:27.210Z,12.67
2022-09-27T04:46:48.317Z,12.15
2022-09-27T04:48:10.358Z,12.44
2022-09-27T04:49:31.784Z,11.71
2022-09-27T04:52:10.431Z,11.09
2022-09-27T04:53:33.928Z,15.64
2022-09-27T04:54:56.530Z,16.02
2022-09-27T04:56:19.231Z,13.58
2022-09-27T04:57:40.318Z,12.23
2022-09-27T04:59:02.599Z,12.38
2022-09-27T05:00:24.367Z,10.81
2022-09-27T05:01:49.258Z,11.19
2022-09-27T05:03:10.786Z,10.99
2022-09-27T05:04:33.374Z,11.52
2022-09-27T05:05:55.007Z,10.87
2022-09-27T05:07:18.295Z,12.58
2022-09-27T05:08:40.023Z,13.45
2022-09-27T05:10:01.710Z,9.99
2022-09-27T05:11:23.052Z,11.86
2022-09-27T05:12:44.971Z,9.73
2022-09-27T05:14:06.139Z,11.83
2022-09-27T05:15:27.801Z,10.98
2022-09-27T05:16:49.241Z,10.89
2022-09-27T05:18:10.356Z,12.49
2022-09-27T05:19:34.124Z,11.78
2022-09-27T05:20:55.397Z,11.06
2022-09-27T05:22:16.574Z,12.02
2022-09-27T05:23:38.979Z,15.40
2022-09-27T05:25:01.320Z,13.24
2022-09-27T05:26:22.728Z,13.13
2022-09-27T05:27:45.107Z,14.31
2022-09-27T05:29:07.120Z,10.86
2022-09-27T05:30:28.686Z,13.72
2022-09-27T05:31:52.956Z,12.55
2022-09-27T05:33:14.644Z,11.42
2022-09-27T05:34:35.995Z,11.51
2022-09-27T05:35:57.767Z,12.08
2022-09-27T05:37:19.380Z,11.88
2022-09-27T05:38:40.546Z,11.93
2022-09-27T05:40:16.999Z,11.73
2022-09-27T05:41:25.862Z,14.16
2022-09-27T05:42:47.402Z,14.41
2022-09-27T05:44:09.001Z,13.09
2022-09-27T05:45:30.351Z,12.99
2022-09-27T05:46:51.811Z,12.48
2022-09-27T05:48:13.418Z,11.27
2022-09-27T05:49:34.814Z,11.20
2022-09-27T05:50:57.331Z,12.99
2022-09-27T05:52:21.437Z,11.33
2022-09-27T05:53:42.850Z,14.46
2022-09-27T05:55:06.405Z,12.06
2022-09-27T05:56:27.512Z,12.64
2022-09-27T05:58:02.770Z,12.48
2022-09-27T05:59:26.837Z,11.92
2022-09-27T06:00:48.168Z,13.49
2022-09-27T06:02:13.140Z,12.79
2022-09-27T06:03:35.363Z,12.50
2022-09-27T06:04:56.683Z,14.99
2022-09-27T06:06:18.621Z,12.24
2022-09-27T06:07:40.006Z,12.26
2022-09-27T06:09:01.772Z,16.49
2022-09-27T06:10:23.474Z,17.86
2022-09-27T06:11:45.348Z,14.81
2022-09-27T06:13:09.441Z,11.81
2022-09-27T06:14:30.985Z,14.96
2022-09-27T06:15:52.176Z,14.14
2022-09-27T06:17:13.773Z,15.21
2022-09-27T06:18:35.071Z,17.36
2022-09-27T06:19:56.842Z,15.55
2022-09-27T06:21:18.320Z,15.06
2022-09-27T06:22:39.636Z,21.47
2022-09-27T06:24:01.110Z,16.93
2022-09-27T06:25:22.320Z,14.60
2022-09-27T06:26:43.917Z,16.08
2022-09-27T06:28:05.418Z,15.56
2022-09-27T06:29:26.892Z,16.01
2022-09-27T06:30:48.870Z,13.15
2022-09-27T06:32:10.264Z,13.86
2022-09-27T06:33:31.850Z,15.09
2022-09-27T06:34:53.520Z,14.76
2022-09-27T06:37:36.418Z,14.86
2022-09-27T06:38:57.935Z,14.22
2022-09-27T06:40:21.841Z,14.44
2022-09-27T06:42:04.735Z,15.55
2022-09-27T06:43:26.057Z,15.04
2022-09-27T06:44:50.091Z,16.07
2022-09-27T06:46:10.799Z,16.04
2022-09-27T06:47:36.959Z,14.71
2022-09-27T06:48:58.411Z,15.88
2022-09-27T06:50:19.598Z,15.72
2022-09-27T06:52:51.055Z,14.91
2022-09-27T06:54:13.585Z,13.94
2022-09-27T06:55:36.272Z,13.17
2022-09-27T06:57:01.719Z,14.08
2022-09-27T06:58:21.353Z,19.01
2022-09-27T06:59:43.138Z,16.36
2022-09-27T07:01:04.586Z,13.52
2022-09-27T07:02:26.506Z,14.63
2022-09-27T07:03:52.387Z,13.69
2022-09-27T07:06:36.696Z,12.49
2022-09-27T07:07:58.001Z,13.23
2022-09-27T07:09:19.186Z,16.03
2022-09-27T07:10:41.049Z,14.31
2022-09-27T07:12:02.717Z,13.87
2022-09-27T07:13:24.449Z,13.63
2022-09-27T07:14:45.832Z,16.06
2022-09-27T07:16:07.567Z,13.94
2022-09-27T07:17:29.057Z,12.97
2022-09-27T07:18:50.292Z,13.11
2022-09-27T07:20:12.890Z,13.12
2022-09-27T07:21:34.884Z,13.35
2022-09-27T07:22:58.726Z,10.62
2022-09-27T07:24:28.444Z,10.33
2022-09-27T07:27:10.144Z,7.42
2022-09-27T07:28:32.063Z,10.31
2022-09-27T07:29:54.009Z,13.21
2022-09-27T07:32:28.879Z,14.36
2022-09-27T07:33:53.935Z,13.90
2022-09-27T07:35:15.245Z,16.70
2022-09-27T07:36:36.692Z,15.37
2022-09-27T07:37:59.038Z,17.45
2022-09-27T07:39:20.343Z,15.03
2022-09-27T07:40:41.818Z,14.67
2022-09-27T07:42:04.013Z,17.59
2022-09-27T07:43:25.593Z,14.42
2022-09-27T07:44:47.138Z,15.04
2022-09-27T07:46:10.326Z,14.49
2022-09-27T07:47:31.567Z,18.41
2022-09-27T07:48:53.071Z,18.05
2022-09-27T07:50:14.453Z,16.50
2022-09-27T07:51:35.550Z,13.57
2022-09-27T07:52:57.005Z,15.97
2022-09-27T07:54:18.421Z,22.75
2022-09-27T07:55:40.279Z,19.90
2022-09-27T07:57:01.431Z,18.37
2022-09-27T07:59:45.932Z,17.50
2022-09-27T08:01:07.855Z,17.94
2022-09-27T08:02:29.272Z,19.43
2022-09-27T08:03:51.157Z,20.07
2022-09-27T08:05:12.722Z,20.41
2022-09-27T08:06:33.935Z,19.88
2022-09-27T08:07:55.384Z,17.45
2022-09-27T08:09:17.194Z,18.70
2022-09-27T08:10:39.149Z,14.33
2022-09-27T08:12:01.609Z,19.91
2022-09-27T08:13:23.628Z,17.59
2022-09-27T08:14:48.462Z,18.10
2022-09-27T08:16:12.001Z,17.56
2022-09-27T08:17:33.681Z,17.87
2022-09-27T08:18:54.823Z,18.29
2022-09-27T08:20:16.453Z,15.03
2022-09-27T08:21:37.872Z,14.91
2022-09-27T08:22:59.826Z,16.17
2022-09-27T08:24:21.507Z,20.37
2022-09-27T08:25:43.123Z,18.18
2022-09-27T08:27:07.053Z,15.32
2022-09-27T08:29:48.624Z,13.50
2022-09-27T08:31:12.331Z,14.07
2022-09-27T08:32:33.488Z,14.01
2022-09-27T08:33:55.030Z,16.35
2022-09-27T08:35:18.847Z,17.26
2022-09-27T08:36:42.074Z,17.26
2022-09-27T08:39:18.998Z,13.69
2022-09-27T08:40:44.058Z,13.99
2022-09-27T08:42:30.466Z,10.97
2022-09-27T08:44:08.338Z,12.98
2022-09-27T08:45:36.661Z,9.97
2022-09-27T08:49:07.261Z,11.01
2022-09-27T08:50:35.053Z,12.46
2022-09-27T08:51:55.835Z,8.56
2022-09-27T08:53:20.413Z,8.53
2022-09-27T08:54:41.747Z,10.74
2022-09-27T08:56:03.296Z,11.03
2022-09-27T08:58:53.676Z,9.63
2022-09-27T09:00:18.669Z,8.69
2022-09-27T09:02:57.184Z,12.31
2022-09-27T09:05:40.706Z,10.57
2022-09-27T09:08:37.493Z,11.29
2022-09-27T09:10:13.326Z,13.85
2022-09-27T09:11:38.577Z,9.09
2022-09-27T09:13:01.723Z,11.46
2022-09-27T09:16:23.832Z,11.02
2022-09-27T09:18:06.812Z,14.01
2022-09-27T09:21:26.602Z,9.19
2022-09-27T09:23:28.715Z,11.82
2022-09-27T09:24:53.866Z,10.63
2022-09-27T09:26:31.398Z,11.16
2022-09-27T09:28:29.326Z,5.83
2022-09-27T09:30:09.682Z,8.80
2022-09-27T09:31:41.656Z,7.34
2022-09-27T09:33:26.749Z,6.76
2022-09-27T09:34:51.029Z,8.85
2022-09-27T09:36:33.690Z,11.67
2022-09-27T09:39:29.000Z,10.08
2022-09-27T09:42:16.866Z,6.52
2022-09-27T09:43:47.003Z,9.01
2022-09-27T09:46:45.928Z,8.43
2022-09-27T09:48:27.291Z,12.57
2022-09-27T09:49:51.556Z,7.63
2022-09-27T09:51:16.559Z,10.02
2022-09-27T09:52:44.284Z,15.81
2022-09-27T09:54:23.482Z,12.75
2022-09-27T09:55:48.167Z,7.03
2022-09-27T09:57:18.072Z,10.44
2022-09-27T09:58:51.817Z,7.52
2022-09-27T10:00:15.013Z,7.28
2022-09-27T10:03:04.426Z,8.27
2022-09-27T10:04:26.807Z,7.85
2022-09-27T10:05:48.824Z,8.80
2022-09-27T10:07:10.570Z,9.39
2022-09-27T10:08:32.100Z,10.28
2022-09-27T10:11:07.157Z,7.37
2022-09-27T10:12:31.699Z,9.64
2022-09-27T10:13:53.210Z,12.92
2022-09-27T10:15:17.570Z,9.39
2022-09-27T10:16:40.562Z,7.84
2022-09-27T10:18:01.616Z,10.96
2022-09-27T10:19:26.588Z,7.74
2022-09-27T10:20:53.470Z,9.71
2022-09-27T10:22:27.404Z,10.28
2022-09-27T10:24:13.530Z,10.27
2022-09-27T10:26:47.255Z,7.42
2022-09-27T10:28:08.492Z,12.07
2022-09-27T10:29:36.326Z,13.17
2022-09-27T10:30:56.229Z,8.20
2022-09-27T10:32:27.968Z,6.25
2022-09-27T10:33:57.125Z,8.71
2022-09-27T10:35:34.996Z,9.91
2022-09-27T10:37:14.407Z,7.47
2022-09-27T10:38:35.887Z,7.34
2022-09-27T10:39:57.226Z,9.72
2022-09-27T10:41:38.666Z,9.46
2022-09-27T10:43:04.422Z,9.55
2022-09-27T10:44:27.898Z,8.29
2022-09-27T10:45:49.655Z,7.54
2022-09-27T10:47:12.130Z,13.28
2022-09-27T10:48:36.644Z,12.23
2022-09-27T10:52:37.955Z,12.40
2022-09-27T10:53:59.273Z,14.24
2022-09-27T10:55:23.199Z,15.54
2022-09-27T10:56:44.788Z,10.72
2022-09-27T10:58:09.728Z,14.91
2022-09-27T10:59:33.953Z,15.77
2022-09-27T11:00:57.199Z,14.65
2022-09-27T11:02:20.776Z,17.26
2022-09-27T11:03:49.819Z,15.70
2022-09-27T11:06:38.301Z,15.40
2022-09-27T11:08:01.991Z,16.89
2022-09-27T11:09:23.349Z,14.72
2022-09-27T11:10:46.902Z,14.04
2022-09-27T11:12:08.885Z,15.87
2022-09-27T11:13:30.342Z,15.86
2022-09-27T11:16:27.463Z,20.57
2022-09-27T11:17:58.515Z,15.24
2022-09-27T11:19:47.392Z,13.29
2022-09-27T11:21:29.093Z,13.24
2022-09-27T11:24:41.433Z,13.23
2022-09-27T11:26:12.756Z,14.02
2022-09-27T11:28:00.652Z,16.96
2022-09-27T11:29:34.455Z,11.29
2022-09-27T11:31:19.628Z,9.61
2022-09-27T11:32:59.598Z,10.72
2022-09-27T11:34:30.786Z,12.32
2022-09-27T11:37:55.024Z,11.24
2022-09-27T11:41:03.603Z,9.34
2022-09-27T11:42:57.535Z,11.64
2022-09-27T11:44:48.255Z,11.00
2022-09-27T11:46:29.905Z,16.24
2022-09-27T11:48:02.226Z,10.99
2022-09-27T11:49:46.512Z,9.43
2022-09-27T11:51:11.895Z,10.15
2022-09-27T11:53:00.825Z,13.07
2022-09-27T11:54:44.301Z,15.66
2022-09-27T11:57:58.247Z,15.12
2022-09-27T11:59:47.028Z,16.49
2022-09-27T12:01:17.738Z,13.47
2022-09-27T12:03:05.772Z,13.26
2022-09-27T12:04:31.008Z,13.89
2022-09-27T12:07:55.005Z,10.44
2022-09-27T12:09:22.372Z,15.02
2022-09-27T12:10:49.848Z,16.36
2022-09-27T12:12:21.790Z,14.53
2022-09-27T12:15:08.726Z,10.16
2022-09-27T12:16:31.001Z,15.39
2022-09-27T12:17:55.007Z,17.13
2022-09-27T12:20:48.196Z,18.37
2022-09-27T12:22:13.984Z,13.60
2022-09-27T12:23:45.055Z,16.04
2022-09-27T12:26:32.894Z,13.58
2022-09-27T12:28:32.249Z,14.34
2022-09-27T12:29:54.997Z,11.93
2022-09-27T12:31:30.536Z,15.72
2022-09-27T12:32:49.167Z,11.94
2022-09-27T12:34:19.898Z,10.44
2022-09-27T12:37:13.913Z,18.22
2022-09-27T12:38:39.033Z,17.08
2022-09-27T12:40:03.117Z,19.17
2022-09-27T12:41:24.315Z,15.40
2022-09-27T12:42:55.626Z,12.00
2022-09-27T12:44:17.287Z,15.27
2022-09-27T12:47:49.320Z,12.56
2022-09-27T12:49:23.224Z,13.29
2022-09-27T12:51:10.896Z,11.02
2022-09-27T12:52:34.679Z,16.44
2022-09-27T12:54:15.213Z,14.62
2022-09-27T12:55:48.870Z,11.43
2022-09-27T12:57:22.832Z,13.08
2022-09-27T12:59:00.035Z,11.28
2022-09-27T13:02:00.828Z,11.97
2022-09-27T13:03:41.905Z,9.02
2022-09-27T13:05:23.239Z,10.33
2022-09-27T13:06:55.115Z,8.93
2022-09-27T13:08:46.232Z,11.61
2022-09-27T13:10:42.559Z,42.78
2022-09-27T13:13:36.760Z,20.04
2022-09-27T13:16:14.577Z,10.68
2022-09-27T13:17:42.876Z,9.40
2022-09-27T13:19:04.315Z,11.23
2022-09-27T13:20:38.532Z,11.58
2022-09-27T13:22:00.042Z,9.45
2022-09-27T13:23:25.307Z,10.64
2022-09-27T13:24:47.012Z,11.38
2022-09-27T13:27:52.715Z,8.03
2022-09-27T13:30:38.954Z,9.79
2022-09-27T13:32:02.619Z,6.46
2022-09-27T13:33:47.425Z,14.33
2022-09-27T13:35:23.909Z,5.57
2022-09-27T13:36:45.555Z,7.21
2022-09-27T13:38:25.049Z,11.34
2022-09-27T13:39:46.176Z,7.29
2022-09-27T13:41:22.156Z,5.18
2022-09-27T13:44:40.205Z,5.70
2022-09-27T13:46:03.536Z,6.37
2022-09-27T13:49:00.829Z,9.01
2022-09-27T13:50:30.983Z,6.87
2022-09-27T13:51:56.090Z,4.72
2022-09-27T13:53:35.234Z,4.92
2022-09-27T13:54:57.353Z,4.52
2022-09-27T13:56:48.280Z,5.50
2022-09-27T13:59:52.521Z,2.86
2022-09-27T14:01:26.799Z,7.36
2022-09-27T14:03:00.238Z,7.20
2022-09-27T14:06:01.457Z,6.29
2022-09-27T14:08:58.435Z,9.81
2022-09-27T14:10:20.875Z,4.54
2022-09-27T14:11:42.516Z,4.71
2022-09-27T14:13:08.899Z,6.94
2022-09-27T14:14:34.401Z,4.80
2022-09-27T14:15:58.462Z,3.75
2022-09-27T14:17:19.679Z,4.58
2022-09-27T14:18:49.252Z,5.26
2022-09-27T14:22:07.735Z,2.20
2022-09-27T14:23:28.804Z,2.96
2022-09-27T14:24:51.622Z,4.47
2022-09-27T14:26:24.872Z,6.34
2022-09-27T14:27:46.388Z,3.43
2022-09-27T14:29:17.897Z,4.04
2022-09-27T14:30:40.249Z,2.29
2022-09-27T14:33:28.329Z,5.81
2022-09-27T14:36:29.716Z,7.87
2022-09-27T14:37:52.365Z,7.64
2022-09-27T14:39:15.365Z,7.19
2022-09-27T14:40:44.711Z,5.21
2022-09-27T14:42:21.743Z,5.08
2022-09-27T14:43:44.439Z,7.99
2022-09-27T14:46:29.867Z,2.28
2022-09-27T14:47:51.567Z,3.71
2022-09-27T14:49:22.954Z,5.23
2022-09-27T14:52:19.451Z,5.73
2022-09-27T14:56:21.783Z,8.37
2022-09-27T14:59:17.375Z,11.38
2022-09-27T15:00:41.320Z,13.03
2022-09-27T15:02:08.034Z,9.54
2022-09-27T15:03:34.510Z,5.61
2022-09-27T15:04:53.716Z,7.29
2022-09-27T15:06:16.642Z,11.43
2022-09-27T15:07:38.035Z,20.92
2022-09-27T15:09:04.564Z,15.95
2022-09-27T15:10:28.087Z,18.63
2022-09-27T15:11:53.056Z,8.65
2022-09-27T15:13:21.465Z,6.47
2022-09-27T15:14:42.867Z,18.85
2022-09-27T15:17:36.757Z,12.00
2022-09-27T15:19:07.595Z,7.23
2022-09-27T15:21:50.766Z,11.13
2022-09-27T15:23:16.133Z,6.68
2022-09-27T15:24:45.490Z,5.86
2022-09-27T15:26:18.216Z,3.94
2022-09-27T15:29:00.090Z,3.83
2022-09-27T15:31:44.338Z,6.61
2022-09-27T15:33:14.371Z,3.58
2022-09-27T15:34:35.901Z,6.35
2022-09-27T15:35:58.963Z,8.58
2022-09-27T15:37:34.877Z,4.75
2022-09-27T15:41:01.627Z,9.86
2022-09-27T15:43:04.502Z,14.87
2022-09-27T15:44:54.874Z,9.56
2022-09-27T15:46:37.094Z,9.31
2022-09-27T15:48:14.824Z,9.76
2022-09-27T15:51:39.997Z,12.29
2022-09-27T15:53:15.456Z,7.01
2022-09-27T15:54:50.278Z,7.28
2022-09-27T15:56:32.108Z,6.41
2022-09-27T15:59:44.605Z,5.83
2022-09-27T16:01:17.218Z,9.14
2022-09-27T16:02:38.496Z,11.07
2022-09-27T16:04:06.934Z,8.98
2022-09-27T16:05:28.349Z,8.62
2022-09-27T16:06:50.107Z,9.29
2022-09-27T16:08:11.681Z,8.59
2022-09-27T16:09:33.349Z,7.62
2022-09-27T16:10:57.285Z,8.21
2022-09-27T16:12:18.765Z,15.01
2022-09-27T16:13:40.234Z,9.33
2022-09-27T16:15:02.018Z,11.38
2022-09-27T16:16:23.242Z,8.88
2022-09-27T16:17:44.615Z,8.25
2022-09-27T16:19:05.836Z,10.36
2022-09-27T16:20:27.510Z,9.72
2022-09-27T16:21:49.071Z,8.22
2022-09-27T16:23:13.194Z,9.61
2022-09-27T16:24:40.119Z,11.13
2022-09-27T16:26:01.438Z,10.26
2022-09-27T16:27:23.839Z,9.02
2022-09-27T16:28:45.410Z,9.61
2022-09-27T16:30:08.335Z,9.08
2022-09-27T16:31:29.935Z,12.02
2022-09-27T16:32:53.382Z,11.73
2022-09-27T16:34:14.738Z,11.98
2022-09-27T16:35:39.564Z,9.76
2022-09-27T16:37:04.847Z,10.29
2022-09-27T16:38:24.368Z,9.89
2022-09-27T16:39:45.857Z,8.96
2022-09-27T16:41:07.038Z,9.51
2022-09-27T16:42:28.513Z,9.69
2022-09-27T16:43:50.703Z,9.26
2022-09-27T16:45:16.870Z,14.24
2022-09-27T16:46:42.570Z,10.33
2022-09-27T16:48:04.090Z,9.17
2022-09-27T16:49:25.503Z,8.44
2022-09-27T16:50:47.256Z,8.76
2022-09-27T16:52:08.680Z,11.84
2022-09-27T16:53:32.050Z,8.13
2022-09-27T16:54:56.326Z,8.00
2022-09-27T16:56:18.733Z,12.88
2022-09-27T16:57:39.998Z,8.58
2022-09-27T16:59:02.182Z,7.68
2022-09-27T17:01:35.517Z,5.99
2022-09-27T17:02:57.195Z,9.92
2022-09-27T17:04:19.270Z,12.93
2022-09-27T17:05:40.438Z,10.78
2022-09-27T17:07:04.523Z,10.74
2022-09-27T17:08:27.808Z,13.91
2022-09-27T17:09:53.777Z,10.22
2022-09-27T17:11:16.125Z,9.93
2022-09-27T17:12:40.130Z,9.38
2022-09-27T17:14:01.585Z,9.06
2022-09-27T17:15:22.810Z,9.26
2022-09-27T17:16:44.838Z,9.61
2022-09-27T17:18:08.098Z,11.54
2022-09-27T17:19:29.441Z,9.29
2022-09-27T17:20:53.819Z,11.51
2022-09-27T17:22:14.909Z,11.18
2022-09-27T17:23:36.266Z,7.36
2022-09-27T17:24:57.780Z,8.31
2022-09-27T17:26:20.727Z,9.55
2022-09-27T17:27:42.224Z,7.65
2022-09-27T17:29:03.590Z,8.36
2022-09-27T17:30:25.315Z,11.31
2022-09-27T17:31:46.543Z,9.12
2022-09-27T17:33:08.045Z,11.64
2022-09-27T17:34:32.663Z,9.83
2022-09-27T17:36:03.259Z,13.07
2022-09-27T17:37:24.816Z,13.70
2022-09-27T17:38:46.611Z,10.12
2022-09-27T17:40:08.251Z,8.97
2022-09-27T17:41:30.035Z,8.91
2022-09-27T17:42:51.842Z,7.31
2022-09-27T17:44:14.341Z,8.72
2022-09-27T17:45:36.746Z,9.09
2022-09-27T17:46:59.884Z,8.47
2022-09-27T17:48:21.611Z,10.11
2022-09-27T17:49:45.446Z,6.54
2022-09-27T17:51:06.794Z,9.32
2022-09-27T17:52:28.300Z,11.57
2022-09-27T17:53:50.623Z,9.57
2022-09-27T17:55:12.284Z,9.10
2022-09-27T17:57:58.664Z,8.44
2022-09-27T17:59:19.965Z,7.68
2022-09-27T18:00:41.227Z,7.31
2022-09-27T18:02:02.452Z,9.15
2022-09-27T18:03:24.129Z,7.87
2022-09-27T18:04:45.669Z,7.17
2022-09-27T18:06:08.617Z,7.02
2022-09-27T18:07:30.654Z,8.83
2022-09-27T18:08:52.935Z,8.75
2022-09-27T18:10:14.989Z,8.33
2022-09-27T18:11:36.804Z,6.77
2022-09-27T18:12:57.914Z,8.09
2022-09-27T18:14:19.337Z,8.10
2022-09-27T18:15:42.843Z,6.69
2022-09-27T18:17:04.327Z,7.78
2022-09-27T18:18:25.871Z,7.80
2022-09-27T18:19:47.218Z,8.59
2022-09-27T18:21:11.318Z,8.15
2022-09-27T18:22:32.755Z,9.44
2022-09-27T18:23:55.153Z,9.89
2022-09-27T18:25:16.297Z,10.98
2022-09-27T18:26:37.783Z,9.83
2022-09-27T18:27:59.123Z,11.72
2022-09-27T18:29:20.692Z,8.69
2022-09-27T18:30:42.528Z,8.16
2022-09-27T18:32:03.809Z,13.81
2022-09-27T18:33:26.396Z,15.71
2022-09-27T18:34:47.945Z,8.89
2022-09-27T18:37:33.365Z,11.91
2022-09-27T18:40:09.935Z,9.63
2022-09-27T18:41:33.770Z,8.01
2022-09-27T18:42:54.973Z,9.16
2022-09-27T18:44:16.667Z,8.76
2022-09-27T18:45:38.977Z,9.14
2022-09-27T18:47:00.577Z,8.13
2022-09-27T18:48:21.769Z,9.54
2022-09-27T18:49:43.195Z,7.19
2022-09-27T18:51:09.403Z,7.01
2022-09-27T18:52:30.692Z,7.15
2022-09-27T18:55:07.217Z,9.68
2022-09-27T18:56:28.763Z,8.03
2022-09-27T18:57:50.140Z,8.96
2022-09-27T18:59:12.272Z,9.15
2022-09-27T19:00:36.064Z,8.35
2022-09-27T19:01:58.240Z,8.68
2022-09-27T19:03:19.701Z,7.89
2022-09-27T19:04:41.069Z,9.49
2022-09-27T19:07:15.134Z,8.58
2022-09-27T19:08:36.616Z,8.32
2022-09-27T19:09:58.319Z,7.71
2022-09-27T19:11:19.783Z,9.51
2022-09-27T19:12:41.331Z,11.42
2022-09-27T19:14:02.803Z,10.63
2022-09-27T19:15:23.820Z,6.69
2022-09-27T19:16:45.407Z,7.83
2022-09-27T19:18:06.798Z,11.65
2022-09-27T19:19:28.116Z,7.53
2022-09-27T19:20:49.432Z,7.62
2022-09-27T19:22:10.831Z,11.94
2022-09-27T19:23:32.383Z,7.29
2022-09-27T19:24:54.329Z,9.86
2022-09-27T19:26:19.138Z,7.45
2022-09-27T19:27:43.126Z,6.90
2022-09-27T19:30:24.065Z,8.83
2022-09-27T19:31:46.552Z,8.86
2022-09-27T19:33:07.926Z,9.38
2022-09-27T19:34:29.276Z,9.23
2022-09-27T19:35:52.021Z,7.47
2022-09-27T19:37:15.620Z,7.56
2022-09-27T19:38:37.086Z,7.84
2022-09-27T19:39:58.415Z,7.49
2022-09-27T19:41:19.911Z,14.23
2022-09-27T19:42:41.774Z,8.64
2022-09-27T19:44:03.245Z,9.55
2022-09-27T19:45:24.916Z,10.03
2022-09-27T19:46:47.049Z,7.57
2022-09-27T19:48:08.563Z,9.52
2022-09-27T19:49:29.551Z,8.55
2022-09-27T19:50:57.298Z,11.74
2022-09-27T19:52:19.027Z,9.85
2022-09-27T19:53:40.197Z,10.06
2022-09-27T19:55:01.549Z,10.57
2022-09-27T19:56:22.841Z,9.54
2022-09-27T19:57:44.293Z,10.61
2022-09-27T19:59:07.384Z,10.91
2022-09-27T20:01:41.183Z,9.47
2022-09-27T20:03:03.187Z,16.78
2022-09-27T20:04:28.066Z,10.17
2022-09-27T20:05:57.201Z,9.23
2022-09-27T20:07:18.306Z,7.49
2022-09-27T20:08:40.186Z,9.43
2022-09-27T20:10:01.120Z,8.49
2022-09-27T20:11:22.866Z,8.02
2022-09-27T20:12:44.172Z,8.33
2022-09-27T20:14:05.752Z,9.19
2022-09-27T20:15:27.011Z,8.26
2022-09-27T20:16:48.536Z,10.09
2022-09-27T20:18:10.235Z,9.19
2022-09-27T20:19:31.839Z,12.88
2022-09-27T20:20:53.302Z,11.14
2022-09-27T20:22:14.772Z,8.47
2022-09-27T20:23:36.315Z,10.42
2022-09-27T20:24:58.613Z,12.52
2022-09-27T20:26:20.981Z,9.84
2022-09-27T20:27:42.090Z,8.76
2022-09-27T20:29:04.122Z,8.50
2022-09-27T20:30:25.350Z,8.92
2022-09-27T20:32:09.381Z,10.18
2022-09-27T20:33:10.305Z,9.52
2022-09-27T20:34:31.814Z,9.18
2022-09-27T20:35:53.315Z,11.82
2022-09-27T20:37:14.663Z,13.07
2022-09-27T20:38:36.002Z,10.02